createdAt,value
2019-04-28T00:04:31.585Z,1.10
2019-04-28T00:10:01.241Z,1.30
2019-04-28T00:15:30.992Z,0.90
2019-04-28T00:21:01.969Z,1.07
2019-04-28T00:26:45.105Z,1.30
2019-04-28T00:32:14.479Z,1.10
2019-04-28T00:37:43.828Z,1.00
2019-04-28T00:43:13.235Z,1.10
2019-04-28T00:48:42.689Z,1.07
2019-04-28T00:54:12.560Z,0.80
2019-04-28T00:59:54.123Z,1.10
2019-04-28T01:05:13.597Z,0.90
2019-04-28T01:10:42.997Z,0.90
2019-04-28T01:16:23.211Z,1.00
2019-04-28T01:22:10.261Z,1.00
2019-04-28T01:27:41.559Z,0.90
2019-04-28T01:33:30.873Z,1.50
2019-04-28T01:39:00.214Z,1.33
2019-04-28T01:44:29.802Z,1.00
2019-04-28T01:50:01.758Z,1.10
2019-04-28T01:55:30.230Z,1.10
2019-04-28T02:00:59.761Z,1.00
2019-04-28T02:06:29.977Z,1.30
2019-04-28T02:12:00.828Z,1.20
2019-04-28T02:17:30.674Z,0.90
2019-04-28T02:23:01.747Z,0.97
2019-04-28T02:28:31.099Z,0.90
2019-04-28T02:34:00.784Z,0.80
2019-04-28T02:39:31.267Z,1.03
2019-04-28T02:45:01.407Z,1.00
2019-04-28T02:50:35.156Z,0.77
2019-04-28T02:56:04.626Z,0.77
2019-04-28T03:01:33.936Z,1.20
2019-04-28T03:07:03.365Z,0.77
2019-04-28T03:12:32.825Z,1.00
2019-04-28T03:18:02.426Z,0.87
2019-04-28T03:23:31.829Z,0.80
2019-04-28T03:29:02.880Z,1.10
2019-04-28T03:34:53.762Z,0.70
2019-04-28T03:40:21.181Z,0.80
2019-04-28T03:46:02.804Z,0.77
2019-04-28T03:51:30.874Z,1.00
2019-04-28T03:57:01.255Z,0.60
2019-04-28T04:02:31.380Z,0.70
2019-04-28T04:08:01.126Z,1.50
2019-04-28T04:13:33.307Z,1.10
2019-04-28T04:19:07.095Z,0.90
2019-04-28T04:24:36.437Z,1.03
2019-04-28T04:30:06.997Z,1.20
2019-04-28T04:35:36.421Z,0.90
2019-04-28T04:41:06.174Z,1.07
2019-04-28T04:46:35.556Z,1.43
2019-04-28T04:52:04.980Z,0.73
2019-04-28T04:57:34.297Z,1.13
2019-04-28T05:03:05.603Z,1.10
2019-04-28T05:08:34.893Z,0.90
2019-04-28T05:14:07.356Z,0.90
2019-04-28T05:19:36.698Z,1.27
2019-04-28T05:25:17.531Z,0.80
2019-04-28T05:30:46.935Z,1.10
2019-04-28T05:36:16.395Z,1.03
2019-04-28T05:41:45.777Z,1.10
2019-04-28T05:47:15.103Z,0.97
2019-04-28T05:53:00.852Z,1.37
2019-04-28T05:58:31.816Z,1.30
2019-04-28T06:04:01.183Z,1.20
2019-04-28T06:09:35.805Z,1.00
2019-04-28T06:15:07.307Z,1.03
2019-04-28T06:20:36.727Z,0.80
2019-04-28T06:26:07.058Z,1.07
2019-04-28T06:31:36.768Z,0.80
2019-04-28T06:37:06.186Z,1.20
2019-04-28T06:42:35.760Z,1.00
2019-04-28T06:48:05.231Z,1.50
2019-04-28T06:53:34.729Z,1.20
2019-04-28T06:59:04.168Z,1.00
2019-04-28T07:04:33.558Z,1.57
2019-04-28T07:10:03.027Z,1.10
2019-04-28T07:15:38.338Z,1.00
2019-04-28T07:21:09.425Z,1.10
2019-04-28T07:26:38.814Z,1.20
2019-04-28T07:32:08.335Z,1.73
2019-04-28T07:37:37.900Z,1.23
2019-04-28T07:43:07.378Z,1.57
2019-04-28T07:48:36.710Z,2.00
2019-04-28T07:54:13.869Z,1.23
2019-04-28T08:00:02.700Z,1.63
2019-04-28T08:05:32.162Z,1.50
2019-04-28T08:11:01.543Z,1.13
2019-04-28T08:16:31.148Z,1.93
2019-04-28T08:22:00.633Z,1.30
2019-04-28T08:27:29.989Z,1.47
2019-04-28T08:33:15.920Z,3.30
2019-04-28T08:38:45.405Z,1.73
2019-04-28T08:44:14.805Z,1.40
2019-04-28T08:49:44.353Z,1.40
2019-04-28T08:55:14.035Z,1.23
2019-04-28T09:00:43.478Z,1.37
2019-04-28T09:06:12.870Z,1.30
2019-04-28T09:11:42.376Z,1.43
2019-04-28T09:17:12.264Z,1.17
2019-04-28T09:22:42.145Z,1.10
2019-04-28T09:28:12.072Z,1.57
2019-04-28T09:33:41.945Z,1.03
2019-04-28T09:39:13.235Z,1.10
2019-04-28T09:44:42.672Z,0.93
2019-04-28T09:50:12.284Z,1.20
2019-04-28T09:55:41.783Z,1.30
2019-04-28T10:01:11.315Z,1.30
2019-04-28T10:06:40.846Z,1.20
2019-04-28T10:12:10.379Z,1.40
2019-04-28T10:17:39.799Z,1.27
2019-04-28T10:23:09.246Z,1.10
2019-04-28T10:28:38.749Z,1.20
2019-04-28T10:34:08.442Z,0.97
2019-04-28T10:39:42.461Z,1.60
2019-04-28T10:45:13.664Z,1.20
2019-04-28T10:50:43.264Z,1.27
2019-04-28T10:56:12.754Z,1.17
2019-04-28T11:01:42.170Z,1.10
2019-04-28T11:07:13.410Z,1.47
2019-04-28T11:12:42.830Z,0.80
2019-04-28T11:18:13.896Z,1.07
2019-04-28T11:23:43.322Z,1.07
2019-04-28T11:29:12.933Z,1.10
2019-04-28T11:34:46.944Z,1.20
2019-04-28T11:40:16.845Z,0.90
2019-04-28T11:45:46.500Z,1.47
2019-04-28T11:51:16.092Z,1.20
2019-04-28T11:56:45.928Z,1.50
2019-04-28T12:02:15.626Z,1.40
2019-04-28T12:07:45.221Z,1.33
2019-04-28T12:13:25.428Z,1.53
2019-04-28T12:19:05.831Z,1.50
2019-04-28T12:24:35.202Z,1.87
2019-04-28T12:30:05.344Z,1.43
2019-04-28T12:35:47.211Z,1.20
2019-04-28T12:41:07.177Z,1.20
2019-04-28T12:46:36.574Z,1.50
2019-04-28T12:52:07.940Z,1.50
2019-04-28T12:57:37.612Z,1.43
2019-04-28T13:03:14.494Z,1.53
2019-04-28T13:08:49.881Z,1.83
2019-04-28T13:14:19.234Z,1.10
2019-04-28T13:19:48.724Z,1.33
2019-04-28T13:25:22.937Z,1.30
2019-04-28T13:30:52.544Z,1.60
2019-04-28T13:36:22.524Z,1.30
2019-04-28T13:41:52.223Z,1.37
2019-04-28T13:47:22.473Z,1.60
2019-04-28T13:52:51.984Z,1.40
2019-04-28T13:58:23.106Z,1.40
2019-04-28T14:03:56.892Z,2.30
2019-04-28T14:09:28.318Z,1.77
2019-04-28T14:15:04.531Z,2.20
2019-04-28T14:20:34.991Z,1.40
2019-04-28T14:26:06.720Z,1.77
2019-04-28T14:31:37.470Z,1.50
2019-04-28T14:37:07.054Z,1.33
2019-04-28T14:42:38.163Z,1.53
2019-04-28T14:48:07.624Z,1.70
2019-04-28T14:53:37.135Z,1.10
2019-04-28T14:59:06.762Z,1.27
2019-04-28T15:04:53.946Z,1.13
2019-04-28T15:10:28.003Z,1.10
2019-04-28T15:15:58.503Z,1.50
2019-04-28T15:21:28.262Z,1.20
2019-04-28T15:26:57.659Z,5.37
2019-04-28T15:32:27.177Z,1.70
2019-04-28T15:37:56.841Z,1.70
2019-04-28T15:43:26.566Z,1.60
2019-04-28T15:48:56.101Z,2.00
2019-04-28T15:54:25.508Z,2.27
2019-04-28T15:59:57.127Z,2.00
2019-04-28T16:05:26.759Z,2.37
2019-04-28T16:10:57.243Z,1.87
2019-04-28T16:16:26.680Z,2.27
2019-04-28T16:21:56.457Z,2.10
2019-04-28T16:27:26.259Z,2.43
2019-04-28T16:32:56.511Z,1.80
2019-04-28T16:38:26.109Z,2.00
2019-04-28T16:43:59.583Z,1.90
2019-04-28T16:49:29.186Z,1.97
2019-04-28T16:55:15.289Z,1.87
2019-04-28T17:00:46.463Z,2.17
2019-04-28T17:06:15.998Z,2.40
2019-04-28T17:11:45.597Z,2.60
2019-04-28T17:17:20.932Z,2.33
2019-04-28T17:22:50.460Z,2.00
2019-04-28T17:28:21.013Z,2.40
2019-04-28T17:33:50.903Z,2.37
2019-04-28T17:39:22.267Z,2.27
2019-04-28T17:44:52.017Z,2.33
2019-04-28T17:50:23.147Z,2.50
2019-04-28T17:55:52.616Z,1.90
2019-04-28T18:01:23.830Z,1.60
2019-04-28T18:06:57.682Z,1.87
2019-04-28T18:12:27.285Z,2.10
2019-04-28T18:18:07.608Z,1.80
2019-04-28T18:23:37.037Z,1.77
2019-04-28T18:29:06.467Z,2.00
2019-04-28T18:34:37.597Z,2.10
2019-04-28T18:40:22.104Z,2.30
2019-04-28T18:45:52.410Z,1.60
2019-04-28T18:51:24.954Z,1.93
2019-04-28T18:56:54.686Z,2.80
2019-04-28T19:02:37.460Z,2.20
2019-04-28T19:08:20.548Z,2.00
2019-04-28T19:13:54.389Z,2.10
2019-04-28T19:19:26.475Z,2.30
2019-04-28T19:24:56.088Z,2.37
2019-04-28T19:30:25.680Z,1.90
2019-04-28T19:35:55.165Z,2.10
2019-04-28T19:41:24.689Z,2.30
2019-04-28T19:46:57.221Z,1.70
2019-04-28T19:52:26.612Z,2.40
2019-04-28T19:57:57.796Z,1.77
2019-04-28T20:03:27.522Z,1.90
2019-04-28T20:08:57.146Z,1.70
2019-04-28T20:14:26.992Z,1.93
2019-04-28T20:19:56.402Z,1.93
2019-04-28T20:25:27.040Z,1.63
2019-04-28T20:30:57.871Z,1.67
2019-04-28T20:36:33.086Z,1.77
2019-04-28T20:42:16.373Z,2.47
2019-04-28T20:47:45.999Z,2.20
2019-04-28T20:53:15.332Z,1.90
2019-04-28T20:58:44.653Z,1.90
2019-04-28T21:04:14.041Z,2.23
2019-04-28T21:09:43.494Z,2.23
2019-04-28T21:15:13.233Z,1.83
2019-04-28T21:20:42.671Z,1.60
2019-04-28T21:26:12.092Z,2.00
2019-04-28T21:31:41.607Z,1.93
2019-04-28T21:37:11.324Z,2.10
2019-04-28T21:42:48.280Z,1.77
2019-04-28T21:48:35.372Z,2.13
2019-04-28T21:54:05.028Z,1.90
2019-04-28T21:59:34.451Z,1.73
2019-04-28T22:05:05.628Z,2.13
2019-04-28T22:10:35.237Z,1.90
2019-04-28T22:16:04.691Z,2.30
2019-04-28T22:21:34.164Z,2.30
2019-04-28T22:27:03.544Z,1.63
2019-04-28T22:32:32.868Z,2.03
2019-04-28T22:38:02.186Z,2.20
2019-04-28T22:43:31.720Z,2.60
2019-04-28T22:49:05.401Z,2.30
2019-04-28T22:54:39.272Z,2.10
2019-04-28T23:00:31.704Z,2.67
2019-04-28T23:06:01.129Z,2.47
2019-04-28T23:11:30.548Z,2.50
2019-04-28T23:16:59.986Z,2.77
2019-04-28T23:22:31.058Z,3.10
2019-04-28T23:28:00.420Z,1.97
2019-04-28T23:33:29.747Z,2.00
2019-04-28T23:38:59.056Z,2.37
2019-04-28T23:44:28.521Z,2.17
2019-04-28T23:49:57.881Z,1.93
2019-04-28T23:55:29.201Z,1.80
